Time;durP1;ratioP1;P1;durP2;ratioP2;P2;SDS_P1;SDS_P2;PMS_P1;PMS_P2;Temp;Humidity;BMP_temperature;BMP_pressure;BME280_temperature;BME280_humidity;BME280_pressure;Samples;Min_cycle;Max_cycle;Signal;HPM_P1;HPM_P2
2023/01/13 00:00:08;;;;;;;;;;;;;;;;;;2570650;23;19914;-94
2023/01/13 00:01:16;;;;;;;;;;;;;;;;;;2587365;22;19903;-95
2023/01/13 00:02:16;;;;;;;;;;;;;;;;;;2582821;23;19979;-94
2023/01/13 00:03:17;;;;;;;;;;;;;;;;;;2570049;23;20336;-94
2023/01/13 00:04:17;;;;;;;;;;;;;;;;;;2570232;23;19999;-94
2023/01/13 00:05:17;;;;;;;;;;;;;;;;;;2582441;23;19989;-93
2023/01/13 00:06:19;;;;;;;;;;;;;;;;;;2594801;22;19914;-94
2023/01/13 00:07:19;;;;;;;;;;;;;;;;;;2570121;23;20391;-93
2023/01/13 00:08:19;;;;;;;;;;;;;;;;;;2570113;23;19954;-93
2023/01/13 00:09:20;;;;;;;;;;;;;;;;;;2586403;23;19946;-95
2023/01/13 00:10:20;;;;;;;;;;;;;;;;;;2582506;23;19903;-94
2023/01/13 00:11:21;;;;;;;;;;;;;;;;;;2582784;23;19903;-94
2023/01/13 00:12:24;;;;;;;;;;;;;;;;;;2582475;23;20321;-95
2023/01/13 00:13:27;;;;;;;;;;;;;;;;;;2570678;23;19939;-94
2023/01/13 00:14:29;;;;;;;;;;;;;;;;;;2570561;23;20007;-95
2023/01/13 00:15:29;;;;;;;;;;;;;;;;;;2570245;23;19922;-94
2023/01/13 00:16:29;;;;;;;;;;;;;;;;;;2570017;23;19967;-94
2023/01/13 00:17:30;;;;;;;;;;;;;;;;;;2569903;23;19910;-95
2023/01/13 00:18:30;;;;;;;;;;;;;;;;;;2569919;23;19992;-94
2023/01/13 00:19:31;;;;;;;;;;;;;;;;;;2570076;23;20392;-95
2023/01/13 00:20:31;;;;;;;;;;;;;;;;;;2569868;23;19911;-94
2023/01/13 00:21:31;;;;;;;;;;;;;;;;;;2569436;23;19939;-94
2023/01/13 00:22:33;;;;;;;;;;;;;;;;;;2569802;23;19908;-94
2023/01/13 00:23:34;;;;;;;;;;;;;;;;;;2570070;23;20229;-94
2023/01/13 00:24:34;;;;;;;;;;;;;;;;;;2570194;23;19903;-95
2023/01/13 00:25:34;;;;;;;;;;;;;;;;;;2569886;23;19916;-95
2023/01/13 00:26:35;;;;;;;;;;;;;;;;;;2141064;23;10001471;-93
2023/01/13 00:27:35;;;;;;;;;;;;;;;;;;2582512;23;19961;-94
2023/01/13 00:28:36;;;;;;;;;;;;;;;;;;2583065;23;19904;-95
2023/01/13 00:29:36;;;;;;;;;;;;;;;;;;2587168;23;19903;-95
2023/01/13 00:30:37;;;;;;;;;;;;;;;;;;2582613;23;20381;-94
2023/01/13 00:31:37;;;;;;;;;;;;;;;;;;2570063;23;19914;-94
2023/01/13 00:32:37;;;;;;;;;;;;;;;;;;2570098;23;20341;-93
2023/01/13 00:33:38;;;;;;;;;;;;;;;;;;2582433;23;19908;-96
2023/01/13 00:34:39;;;;;;;;;;;;;;;;;;2586891;23;19984;-94
2023/01/13 00:35:39;;;;;;;;;;;;;;;;;;2582430;22;19934;-93
2023/01/13 00:36:40;;;;;;;;;;;;;;;;;;2569865;23;19956;-94
2023/01/13 00:37:40;;;;;;;;;;;;;;;;;;2582808;23;19918;-95
2023/01/13 00:38:41;;;;;;;;;;;;;;;;;;2570061;23;20062;-93
2023/01/13 00:39:42;;;;;;;;;;;;;;;;;;2569941;23;19966;-93
2023/01/13 00:40:42;;;;;;;;;;;;;;;;;;2541377;23;20256;-95
2023/01/13 00:44:20;;;;;;;;;;;;;;;;;;2601280;22;19923;-94
2023/01/13 00:45:21;;;;;;;;;;;;;;;;;;2582660;23;19903;-94
2023/01/13 00:46:21;;;;;;;;;;;;;;;;;;2570071;23;19904;-94
2023/01/13 00:47:22;;;;;;;;;;;;;;;;;;2146529;23;10001039;-94
2023/01/13 00:48:23;;;;;;;;;;;;;;;;;;2582613;23;20287;-93
2023/01/13 00:49:23;;;;;;;;;;;;;;;;;;2582191;23;19970;-95
2023/01/13 00:50:23;;;;;;;;;;;;;;;;;;2569987;23;19939;-94
2023/01/13 00:51:24;;;;;;;;;;;;;;;;;;2583218;23;19908;-94
2023/01/13 00:52:24;;;;;;;;;;;;;;;;;;2582746;23;20351;-93
2023/01/13 00:53:25;;;;;;;;;;;;;;;;;;2583371;23;20045;-92
2023/01/13 00:54:25;;;;;;;;;;;;;;;;;;2583178;23;20040;-93
2023/01/13 00:55:26;;;;;;;;;;;;;;;;;;2583333;23;19907;-94
2023/01/13 00:56:26;;;;;;;;;;;;;;;;;;2595873;22;19903;-93
2023/01/13 00:57:26;;;;;;;;;;;;;;;;;;2570776;23;19911;-94
2023/01/13 00:58:27;;;;;;;;;;;;;;;;;;2570623;23;20320;-92
2023/01/13 00:59:27;;;;;;;;;;;;;;;;;;2582963;23;20297;-93
2023/01/13 01:00:28;;;;;;;;;;;;;;;;;;2570593;23;19904;-94
2023/01/13 01:01:29;;;;;;;;;;;;;;;;;;2583362;22;19911;-93
2023/01/13 01:02:29;;;;;;;;;;;;;;;;;;2583260;23;19931;-94
2023/01/13 01:03:29;;;;;;;;;;;;;;;;;;2583179;23;20094;-93
2023/01/13 01:04:30;;;;;;;;;;;;;;;;;;2583174;23;19903;-94
2023/01/13 01:05:32;;;;;;;;;;;;;;;;;;2583312;23;20220;-93
2023/01/13 01:06:32;;;;;;;;;;;;;;;;;;2583225;23;20206;-93
2023/01/13 01:07:32;;;;;;;;;;;;;;;;;;2587371;23;19934;-96
2023/01/13 01:08:33;;;;;;;;;;;;;;;;;;2583318;23;19903;-93
2023/01/13 01:09:38;;;;;;;;;;;;;;;;;;2570769;23;19955;-94
2023/01/13 01:10:38;;;;;;;;;;;;;;;;;;2570011;23;20286;-90
2023/01/13 01:11:39;;;;;;;;;;;;;;;;;;2569283;23;19947;-91
2023/01/13 01:12:39;;;;;;;;;;;;;;;;;;2568983;23;20336;-91
2023/01/13 01:13:40;;;;;;;;;;;;;;;;;;2586131;23;20007;-90
2023/01/13 01:14:40;;;;;;;;;;;;;;;;;;2582005;23;19903;-91
2023/01/13 01:15:40;;;;;;;;;;;;;;;;;;2569495;23;19904;-90
2023/01/13 01:16:41;;;;;;;;;;;;;;;;;;2581534;23;19904;-91
2023/01/13 01:17:41;;;;;;;;;;;;;;;;;;2586245;23;19903;-90
2023/01/13 01:18:43;;;;;;;;;;;;;;;;;;2581745;23;20071;-90
2023/01/13 01:19:43;;;;;;;;;;;;;;;;;;2581574;23;19903;-91
2023/01/13 01:20:43;;;;;;;;;;;;;;;;;;2569350;23;19979;-91
2023/01/13 01:21:43;;;;;;;;;;;;;;;;;;2585877;23;19930;-88
2023/01/13 01:22:44;;;;;;;;;;;;;;;;;;2581807;23;19907;-89
2023/01/13 01:23:44;;;;;;;;;;;;;;;;;;2569272;23;19950;-90
2023/01/13 01:24:46;;;;;;;;;;;;;;;;;;2581728;23;20356;-91
2023/01/13 01:25:46;;;;;;;;;;;;;;;;;;2581667;23;19915;-91
2023/01/13 01:26:46;;;;;;;;;;;;;;;;;;2584878;23;19978;-89
2023/01/13 01:27:46;;;;;;;;;;;;;;;;;;2581580;23;19914;-89
2023/01/13 01:28:49;;;;;;;;;;;;;;;;;;2569241;23;20317;-89
2023/01/13 01:29:49;;;;;;;;;;;;;;;;;;2570501;23;19923;-88
2023/01/13 01:30:50;;;;;;;;;;;;;;;;;;2135764;23;10001289;-91
2023/01/13 01:31:50;;;;;;;;;;;;;;;;;;2569454;23;19928;-91
2023/01/13 01:32:50;;;;;;;;;;;;;;;;;;2585876;23;19970;-90
2023/01/13 01:33:51;;;;;;;;;;;;;;;;;;2594309;22;19939;-91
2023/01/13 01:34:52;;;;;;;;;;;;;;;;;;2593976;22;20006;-90
2023/01/13 01:35:52;;;;;;;;;;;;;;;;;;2579346;22;19935;-89
2023/01/13 01:36:53;;;;;;;;;;;;;;;;;;2571903;23;19911;-90
2023/01/13 01:37:53;;;;;;;;;;;;;;;;;;2570476;23;19904;-90
2023/01/13 01:38:54;;;;;;;;;;;;;;;;;;2581784;23;20428;-91
2023/01/13 01:39:55;;;;;;;;;;;;;;;;;;2581834;23;20242;-91
2023/01/13 01:40:55;;;;;;;;;;;;;;;;;;2569397;23;19935;-91
2023/01/13 01:43:58;;;;;;;;;;;;;;;;;;2562470;23;19961;-90
2023/01/13 01:45:01;;;;;;;;;;;;;;;;;;2599747;22;19907;-91
2023/01/13 01:46:01;;;;;;;;;;;;;;;;;;2581818;23;19903;-91
2023/01/13 01:47:01;;;;;;;;;;;;;;;;;;2569449;23;19904;-91
2023/01/13 01:48:03;;;;;;;;;;;;;;;;;;2569336;23;20264;-90
2023/01/13 01:49:09;;;;;;;;;;;;;;;;;;2569729;23;19930;-91
2023/01/13 01:50:10;;;;;;;;;;;;;;;;;;2570752;23;19911;-89
2023/01/13 01:51:12;;;;;;;;;;;;;;;;;;2569634;23;19904;-91
2023/01/13 01:52:14;;;;;;;;;;;;;;;;;;2593443;22;19908;-90
2023/01/13 01:53:16;;;;;;;;;;;;;;;;;;2593989;22;19915;-90
2023/01/13 01:54:19;;;;;;;;;;;;;;;;;;2581842;22;19899;-91
2023/01/13 01:55:21;;;;;;;;;;;;;;;;;;2581804;22;19914;-89
2023/01/13 01:56:21;;;;;;;;;;;;;;;;;;2591985;22;19927;-88
2023/01/13 01:57:42;;;;;;;;;;;;;;;;;;2600295;22;19911;-90
2023/01/13 01:58:45;;;;;;;;;;;;;;;;;;2581024;23;20372;-90
2023/01/13 01:59:45;;;;;;;;;;;;;;;;;;2569572;23;19912;-91
2023/01/13 02:00:46;;;;;;;;;;;;;;;;;;2569375;23;19998;-91
2023/01/13 02:01:48;;;;;;;;;;;;;;;;;;2581922;23;20288;-92
2023/01/13 02:02:49;;;;;;;;;;;;;;;;;;2585848;22;19931;-90
2023/01/13 02:03:53;;;;;;;;;;;;;;;;;;2581890;23;19982;-90
2023/01/13 02:04:54;;;;;;;;;;;;;;;;;;2569800;23;19903;-90
2023/01/13 02:05:55;;;;;;;;;;;;;;;;;;2569634;23;19907;-90
2023/01/13 02:06:56;;;;;;;;;;;;;;;;;;2585689;23;19910;-90
2023/01/13 02:07:57;;;;;;;;;;;;;;;;;;2599714;22;19960;-89
2023/01/13 02:08:58;;;;;;;;;;;;;;;;;;2581667;23;19935;-90
2023/01/13 02:10:01;;;;;;;;;;;;;;;;;;2569008;23;20312;-90
2023/01/13 02:11:02;;;;;;;;;;;;;;;;;;2569657;23;19994;-90
2023/01/13 02:13:21;;;;;;;;;;;;;;;;;;2589761;22;19951;-90
2023/01/13 02:14:23;;;;;;;;;;;;;;;;;;2581746;23;19908;-90
2023/01/13 02:15:26;;;;;;;;;;;;;;;;;;2569030;23;19904;-90
2023/01/13 02:16:26;;;;;;;;;;;;;;;;;;2582063;22;19903;-89
2023/01/13 02:17:30;;;;;;;;;;;;;;;;;;2581500;23;20328;-90
2023/01/13 02:18:48;;;;;;;;;;;;;;;;;;2581852;22;19910;-90
2023/01/13 02:19:57;;;;;;;;;;;;;;;;;;2581610;23;20385;-89
2023/01/13 02:21:09;;;;;;;;;;;;;;;;;;2570948;23;19943;-90
2023/01/13 02:22:17;;;;;;;;;;;;;;;;;;2571124;23;19958;-90
2023/01/13 02:24:57;;;;;;;;;;;;;;;;;;2589830;22;19914;-91
2023/01/13 02:26:16;;;;;;;;;;;;;;;;;;2581552;23;19986;-90
2023/01/13 02:27:25;;;;;;;;;;;;;;;;;;2582485;23;19990;-90
2023/01/13 02:28:28;;;;;;;;;;;;;;;;;;2595791;22;19903;-92
2023/01/13 02:32:47;;;;;;;;;;;;;;;;;;2583718;22;20006;-93
2023/01/13 02:33:53;;;;;;;;;;;;;;;;;;2583340;23;20260;-93
2023/01/13 02:34:57;;;;;;;;;;;;;;;;;;2568829;23;19903;-94
2023/01/13 02:36:14;;;;;;;;;;;;;;;;;;2571253;23;19939;-93
2023/01/13 02:37:27;;;;;;;;;;;;;;;;;;2573660;23;20142;-94
2023/01/13 02:38:31;;;;;;;;;;;;;;;;;;2573039;23;19904;-94
2023/01/13 02:39:34;;;;;;;;;;;;;;;;;;2571057;23;19995;-95
2023/01/13 02:40:49;;;;;;;;;;;;;;;;;;2570770;23;19958;-94
2023/01/13 02:44:43;;;;;;;;;;;;;;;;;;2595651;22;19907;-93
2023/01/13 02:45:47;;;;;;;;;;;;;;;;;;2582742;23;19904;-93
2023/01/13 02:46:52;;;;;;;;;;;;;;;;;;2558482;23;19994;-93
2023/01/13 02:47:55;;;;;;;;;;;;;;;;;;2572052;22;19904;-93
2023/01/13 02:48:56;;;;;;;;;;;;;;;;;;2582443;23;19943;-92
2023/01/13 02:50:07;;;;;;;;;;;;;;;;;;2570337;23;20371;-93
2023/01/13 02:51:11;;;;;;;;;;;;;;;;;;2568033;23;19979;-94
2023/01/13 02:52:14;;;;;;;;;;;;;;;;;;2570609;23;19915;-93
2023/01/13 02:53:26;;;;;;;;;;;;;;;;;;1749321;22;10001979;-93
2023/01/13 02:54:28;;;;;;;;;;;;;;;;;;2570368;23;20105;-94
2023/01/13 02:55:41;;;;;;;;;;;;;;;;;;2575266;23;19951;-94
2023/01/13 02:56:43;;;;;;;;;;;;;;;;;;2572954;23;19966;-94
2023/01/13 02:57:44;;;;;;;;;;;;;;;;;;2570834;23;19915;-92
2023/01/13 02:58:45;;;;;;;;;;;;;;;;;;2570758;23;19939;-92
2023/01/13 02:59:46;;;;;;;;;;;;;;;;;;2583278;22;19904;-93
2023/01/13 03:00:47;;;;;;;;;;;;;;;;;;2583147;23;20325;-95
2023/01/13 03:01:48;;;;;;;;;;;;;;;;;;2570913;23;19915;-94
2023/01/13 03:02:49;;;;;;;;;;;;;;;;;;2583070;22;19947;-95
2023/01/13 03:03:49;;;;;;;;;;;;;;;;;;2582916;23;19946;-94
2023/01/13 03:04:53;;;;;;;;;;;;;;;;;;2570471;23;20313;-91
2023/01/13 03:05:58;;;;;;;;;;;;;;;;;;2583574;22;19910;-94
2023/01/13 03:07:08;;;;;;;;;;;;;;;;;;2582565;23;19954;-94
2023/01/13 03:08:08;;;;;;;;;;;;;;;;;;2143538;23;10001727;-94
2023/01/13 03:09:21;;;;;;;;;;;;;;;;;;2570337;23;19919;-93
2023/01/13 03:10:40;;;;;;;;;;;;;;;;;;2572631;23;19904;-93
2023/01/13 03:11:49;;;;;;;;;;;;;;;;;;2574024;23;20386;-93
2023/01/13 03:12:58;;;;;;;;;;;;;;;;;;2573622;23;19934;-95
2023/01/13 03:14:22;;;;;;;;;;;;;;;;;;2572541;23;19931;-96
2023/01/13 03:15:27;;;;;;;;;;;;;;;;;;2575324;23;19915;-95
2023/01/13 03:16:30;;;;;;;;;;;;;;;;;;2571413;23;19984;-94
2023/01/13 03:17:38;;;;;;;;;;;;;;;;;;2571257;23;19947;-94
2023/01/13 03:18:57;;;;;;;;;;;;;;;;;;2572206;23;19904;-93
2023/01/13 03:20:06;;;;;;;;;;;;;;;;;;2586962;22;19904;-94
2023/01/13 03:21:11;;;;;;;;;;;;;;;;;;2582908;23;19904;-95
2023/01/13 03:22:24;;;;;;;;;;;;;;;;;;2571740;23;19904;-93
2023/01/13 03:23:33;;;;;;;;;;;;;;;;;;2572994;23;19911;-94
2023/01/13 03:25:03;;;;;;;;;;;;;;;;;;2571882;23;19904;-95
2023/01/13 03:26:16;;;;;;;;;;;;;;;;;;2558496;23;19931;-93
2023/01/13 03:27:29;;;;;;;;;;;;;;;;;;2573366;23;19903;-93
2023/01/13 03:28:34;;;;;;;;;;;;;;;;;;2575377;23;19904;-93
2023/01/13 03:29:39;;;;;;;;;;;;;;;;;;2579554;22;19939;-93
2023/01/13 03:30:47;;;;;;;;;;;;;;;;;;2582789;22;19908;-93
2023/01/13 03:32:09;;;;;;;;;;;;;;;;;;2576727;23;19912;-94
2023/01/13 03:33:14;;;;;;;;;;;;;;;;;;2570850;23;19910;-94
2023/01/13 03:34:18;;;;;;;;;;;;;;;;;;2572009;23;19908;-94
2023/01/13 03:35:24;;;;;;;;;;;;;;;;;;2587964;22;20453;-94
2023/01/13 03:36:26;;;;;;;;;;;;;;;;;;2164120;22;10001301;-94
2023/01/13 03:37:32;;;;;;;;;;;;;;;;;;2582760;23;20330;-94
2023/01/13 03:38:35;;;;;;;;;;;;;;;;;;2571222;23;19910;-93
2023/01/13 03:39:38;;;;;;;;;;;;;;;;;;2589811;22;19914;-93
2023/01/13 03:40:41;;;;;;;;;;;;;;;;;;2583543;23;19904;-95
2023/01/13 03:41:48;;;;;;;;;;;;;;;;;;2570558;23;19927;-94
2023/01/13 03:44:21;;;;;;;;;;;;;;;;;;2591712;22;19907;-92
2023/01/13 03:45:22;;;;;;;;;;;;;;;;;;2600547;22;19938;-94
2023/01/13 03:46:28;;;;;;;;;;;;;;;;;;2600282;22;19922;-95
2023/01/13 03:47:37;;;;;;;;;;;;;;;;;;2582755;23;19923;-94
2023/01/13 03:48:40;;;;;;;;;;;;;;;;;;2571679;23;19938;-94
2023/01/13 03:49:43;;;;;;;;;;;;;;;;;;2570762;23;19954;-95
2023/01/13 03:50:48;;;;;;;;;;;;;;;;;;2570661;23;19904;-94
2023/01/13 03:51:55;;;;;;;;;;;;;;;;;;2570861;23;19908;-94
2023/01/13 03:53:05;;;;;;;;;;;;;;;;;;2571633;23;20217;-94
2023/01/13 03:54:07;;;;;;;;;;;;;;;;;;2571943;23;19916;-94
2023/01/13 03:55:13;;;;;;;;;;;;;;;;;;2570505;23;19998;-94
2023/01/13 03:56:21;;;;;;;;;;;;;;;;;;2583768;22;19959;-95
2023/01/13 03:57:23;;;;;;;;;;;;;;;;;;2582723;23;19904;-94
2023/01/13 03:58:26;;;;;;;;;;;;;;;;;;2570373;23;19904;-94
2023/01/13 03:59:29;;;;;;;;;;;;;;;;;;2571153;23;20235;-94
2023/01/13 04:00:32;;;;;;;;;;;;;;;;;;2570727;23;20063;-95
2023/01/13 04:01:42;;;;;;;;;;;;;;;;;;2571012;23;19914;-96
2023/01/13 04:02:49;;;;;;;;;;;;;;;;;;2144561;23;10000959;-93
2023/01/13 04:03:49;;;;;;;;;;;;;;;;;;2571414;23;20311;-93
2023/01/13 04:04:57;;;;;;;;;;;;;;;;;;2570158;23;19946;-94
2023/01/13 04:06:01;;;;;;;;;;;;;;;;;;2582834;23;19996;-95
2023/01/13 04:07:24;;;;;;;;;;;;;;;;;;2570572;23;19915;-95
2023/01/13 04:08:26;;;;;;;;;;;;;;;;;;2574249;23;19922;-92
2023/01/13 04:09:34;;;;;;;;;;;;;;;;;;2570087;23;19983;-93
2023/01/13 04:10:42;;;;;;;;;;;;;;;;;;2571611;23;19920;-93
2023/01/13 04:11:45;;;;;;;;;;;;;;;;;;2571074;23;19903;-93
2023/01/13 04:13:04;;;;;;;;;;;;;;;;;;2570725;23;20053;-95
2023/01/13 04:14:09;;;;;;;;;;;;;;;;;;2589035;22;19928;-92
2023/01/13 04:15:10;;;;;;;;;;;;;;;;;;2586809;22;19942;-94
2023/01/13 04:16:11;;;;;;;;;;;;;;;;;;2581667;22;19900;-92
2023/01/13 04:17:12;;;;;;;;;;;;;;;;;;2574983;23;19910;-93
2023/01/13 04:18:17;;;;;;;;;;;;;;;;;;2588702;23;19903;-94
2023/01/13 04:19:17;;;;;;;;;;;;;;;;;;2580549;23;19903;-92
2023/01/13 04:20:17;;;;;;;;;;;;;;;;;;2572242;23;20263;-94
2023/01/13 04:21:18;;;;;;;;;;;;;;;;;;2572352;23;19953;-92
2023/01/13 04:22:18;;;;;;;;;;;;;;;;;;2583947;23;20364;-91
2023/01/13 04:23:19;;;;;;;;;;;;;;;;;;2582702;23;19904;-94
2023/01/13 04:24:19;;;;;;;;;;;;;;;;;;2570179;23;19915;-94
2023/01/13 04:25:19;;;;;;;;;;;;;;;;;;2569490;23;19903;-93
2023/01/13 04:26:22;;;;;;;;;;;;;;;;;;2582056;23;19955;-92
2023/01/13 04:27:22;;;;;;;;;;;;;;;;;;2582402;22;19903;-93
2023/01/13 04:28:23;;;;;;;;;;;;;;;;;;2582412;23;19904;-94
2023/01/13 04:29:23;;;;;;;;;;;;;;;;;;2582301;22;20344;-92
2023/01/13 04:30:24;;;;;;;;;;;;;;;;;;2582439;23;20023;-94
2023/01/13 04:31:24;;;;;;;;;;;;;;;;;;2582291;23;19916;-93
2023/01/13 04:32:28;;;;;;;;;;;;;;;;;;1450047;23;10020998;-94
2023/01/13 04:33:29;;;;;;;;;;;;;;;;;;2590852;22;19899;-92
2023/01/13 04:34:29;;;;;;;;;;;;;;;;;;2593956;22;19911;-94
2023/01/13 04:35:30;;;;;;;;;;;;;;;;;;2581520;22;19892;-94
2023/01/13 04:36:30;;;;;;;;;;;;;;;;;;2579885;22;19947;-95
2023/01/13 04:37:31;;;;;;;;;;;;;;;;;;2573365;23;19911;-94
2023/01/13 04:38:31;;;;;;;;;;;;;;;;;;2585071;23;19948;-93
2023/01/13 04:39:31;;;;;;;;;;;;;;;;;;2570763;23;19962;-93
2023/01/13 04:40:32;;;;;;;;;;;;;;;;;;2582781;23;20033;-94
2023/01/13 04:41:56;;;;;;;;;;;;;;;;;;2582385;23;19904;-94
2023/01/13 04:42:52;;;;;;;;;;;;;;;;;;2156124;22;10001027;-93
2023/01/13 04:43:52;;;;;;;;;;;;;;;;;;2582109;22;19990;-93
2023/01/13 04:44:53;;;;;;;;;;;;;;;;;;2569811;23;20373;-94
2023/01/13 04:45:56;;;;;;;;;;;;;;;;;;2569445;23;19950;-93
2023/01/13 04:46:57;;;;;;;;;;;;;;;;;;2569024;23;19911;-91
2023/01/13 04:47:57;;;;;;;;;;;;;;;;;;2568514;23;19958;-90
2023/01/13 04:48:57;;;;;;;;;;;;;;;;;;2583141;23;19911;-90
2023/01/13 04:49:58;;;;;;;;;;;;;;;;;;2586033;23;20252;-90
2023/01/13 04:50:58;;;;;;;;;;;;;;;;;;2581260;23;19914;-89
2023/01/13 04:51:58;;;;;;;;;;;;;;;;;;2568569;23;20273;-89
2023/01/13 04:53:01;;;;;;;;;;;;;;;;;;2572689;23;20210;-89
2023/01/13 04:54:02;;;;;;;;;;;;;;;;;;2581310;23;19910;-91
2023/01/13 04:55:02;;;;;;;;;;;;;;;;;;2568468;23;20031;-91
2023/01/13 04:56:03;;;;;;;;;;;;;;;;;;2568211;23;19979;-91
2023/01/13 04:57:03;;;;;;;;;;;;;;;;;;2585185;23;19981;-90
2023/01/13 04:58:04;;;;;;;;;;;;;;;;;;2581127;23;20544;-91
2023/01/13 04:59:05;;;;;;;;;;;;;;;;;;2568589;23;19929;-89
2023/01/13 05:00:06;;;;;;;;;;;;;;;;;;2568555;23;20003;-92
2023/01/13 05:01:07;;;;;;;;;;;;;;;;;;2568458;23;19974;-90
2023/01/13 05:02:08;;;;;;;;;;;;;;;;;;2585283;23;19909;-90
2023/01/13 05:03:08;;;;;;;;;;;;;;;;;;2580915;23;19944;-90
2023/01/13 05:04:08;;;;;;;;;;;;;;;;;;2568250;23;19970;-89
2023/01/13 05:05:09;;;;;;;;;;;;;;;;;;2568628;23;20308;-90
2023/01/13 05:06:09;;;;;;;;;;;;;;;;;;2585397;23;19904;-91
2023/01/13 05:07:09;;;;;;;;;;;;;;;;;;2586231;23;19904;-91
2023/01/13 05:08:10;;;;;;;;;;;;;;;;;;2586046;23;20289;-92
2023/01/13 05:09:12;;;;;;;;;;;;;;;;;;2581043;23;19947;-91
2023/01/13 05:10:12;;;;;;;;;;;;;;;;;;2585695;23;19907;-91
2023/01/13 05:17:51;;;;;;;;;;;;;;;;;;2586139;22;19907;-91
2023/01/13 05:18:51;;;;;;;;;;;;;;;;;;2581185;23;19925;-90
2023/01/13 05:19:51;;;;;;;;;;;;;;;;;;2568560;23;19923;-91
2023/01/13 05:20:52;;;;;;;;;;;;;;;;;;2568847;23;19939;-90
2023/01/13 05:25:51;;;;;;;;;;;;;;;;;;2586153;23;19903;-89
2023/01/13 05:26:52;;;;;;;;;;;;;;;;;;2580938;23;19903;-92
2023/01/13 05:27:55;;;;;;;;;;;;;;;;;;2568529;23;19911;-90
2023/01/13 05:28:56;;;;;;;;;;;;;;;;;;2582161;22;19907;-91
2023/01/13 05:29:56;;;;;;;;;;;;;;;;;;2593594;22;20030;-90
2023/01/13 05:30:56;;;;;;;;;;;;;;;;;;2568688;23;19912;-91
2023/01/13 05:31:57;;;;;;;;;;;;;;;;;;2585277;23;19904;-90
2023/01/13 05:32:57;;;;;;;;;;;;;;;;;;2581240;23;19955;-90
2023/01/13 05:33:57;;;;;;;;;;;;;;;;;;2568766;23;19908;-91
2023/01/13 05:34:58;;;;;;;;;;;;;;;;;;2568645;23;19915;-92
2023/01/13 05:36:00;;;;;;;;;;;;;;;;;;2581207;23;19903;-88
2023/01/13 05:37:02;;;;;;;;;;;;;;;;;;2581363;23;19963;-92
2023/01/13 05:38:02;;;;;;;;;;;;;;;;;;2569240;23;19903;-92
2023/01/13 05:39:04;;;;;;;;;;;;;;;;;;2569568;23;19993;-91
2023/01/13 05:44:01;;;;;;;;;;;;;;;;;;2593360;22;19911;-91
2023/01/13 05:45:01;;;;;;;;;;;;;;;;;;2582026;23;20255;-91
2023/01/13 05:46:06;;;;;;;;;;;;;;;;;;2586414;23;20355;-90
2023/01/13 05:47:07;;;;;;;;;;;;;;;;;;2600015;22;19903;-92
2023/01/13 05:48:07;;;;;;;;;;;;;;;;;;2594651;22;19943;-90
2023/01/13 05:49:07;;;;;;;;;;;;;;;;;;2581822;23;20022;-90
2023/01/13 05:50:08;;;;;;;;;;;;;;;;;;2581958;23;19904;-91
2023/01/13 05:51:10;;;;;;;;;;;;;;;;;;2581945;23;19921;-91
2023/01/13 05:52:10;;;;;;;;;;;;;;;;;;2581742;22;19977;-90
2023/01/13 05:53:10;;;;;;;;;;;;;;;;;;2598823;22;19903;-91
2023/01/13 05:54:11;;;;;;;;;;;;;;;;;;2581880;23;19915;-91
2023/01/13 05:55:11;;;;;;;;;;;;;;;;;;2569348;23;19910;-90
2023/01/13 05:56:11;;;;;;;;;;;;;;;;;;2583590;23;19904;-90
2023/01/13 05:57:12;;;;;;;;;;;;;;;;;;2582303;23;20260;-89
2023/01/13 05:58:13;;;;;;;;;;;;;;;;;;2598727;22;19929;-89
2023/01/13 05:59:13;;;;;;;;;;;;;;;;;;2581481;23;19908;-89
2023/01/13 06:00:14;;;;;;;;;;;;;;;;;;2569201;23;19987;-90
2023/01/13 06:01:14;;;;;;;;;;;;;;;;;;2568780;23;19903;-90
2023/01/13 06:02:14;;;;;;;;;;;;;;;;;;2585793;23;19954;-89
2023/01/13 06:03:15;;;;;;;;;;;;;;;;;;2581472;23;20331;-90
2023/01/13 06:04:15;;;;;;;;;;;;;;;;;;2569418;23;20003;-91
2023/01/13 06:05:15;;;;;;;;;;;;;;;;;;2590396;23;19907;-91
2023/01/13 06:06:15;;;;;;;;;;;;;;;;;;2589801;23;19926;-91
2023/01/13 06:07:16;;;;;;;;;;;;;;;;;;2599581;22;19943;-90
2023/01/13 06:08:17;;;;;;;;;;;;;;;;;;2581658;23;19904;-89
2023/01/13 06:09:19;;;;;;;;;;;;;;;;;;2586343;22;19910;-90
2023/01/13 06:10:20;;;;;;;;;;;;;;;;;;2595734;22;19908;-90
2023/01/13 06:11:20;;;;;;;;;;;;;;;;;;2599206;22;19907;-90
2023/01/13 06:12:20;;;;;;;;;;;;;;;;;;2581243;23;19986;-90
2023/01/13 06:13:21;;;;;;;;;;;;;;;;;;2572091;23;19935;-94
2023/01/13 06:14:21;;;;;;;;;;;;;;;;;;2569209;23;19904;-91
2023/01/13 06:15:22;;;;;;;;;;;;;;;;;;2569288;23;20308;-90
2023/01/13 06:16:22;;;;;;;;;;;;;;;;;;2581944;23;19934;-91
2023/01/13 06:17:23;;;;;;;;;;;;;;;;;;2598885;22;19944;-92
2023/01/13 06:18:23;;;;;;;;;;;;;;;;;;2599867;22;19930;-90
2023/01/13 06:19:23;;;;;;;;;;;;;;;;;;2581712;23;20052;-91
2023/01/13 06:20:24;;;;;;;;;;;;;;;;;;2569274;23;19946;-90
2023/01/13 06:21:24;;;;;;;;;;;;;;;;;;2581825;23;19907;-91
2023/01/13 06:22:34;;;;;;;;;;;;;;;;;;2598694;22;20329;-91
2023/01/13 06:23:37;;;;;;;;;;;;;;;;;;2586332;23;19909;-90
2023/01/13 06:24:38;;;;;;;;;;;;;;;;;;2569199;23;19990;-91
2023/01/13 06:25:59;;;;;;;;;;;;;;;;;;2568779;23;19962;-90
2023/01/13 06:26:59;;;;;;;;;;;;;;;;;;2573528;23;19938;-90
2023/01/13 06:28:00;;;;;;;;;;;;;;;;;;2568354;23;20324;-90
2023/01/13 06:29:00;;;;;;;;;;;;;;;;;;2585063;23;19971;-90
2023/01/13 06:30:00;;;;;;;;;;;;;;;;;;2598978;22;19907;-90
2023/01/13 06:31:02;;;;;;;;;;;;;;;;;;2598830;22;19930;-89
2023/01/13 06:32:11;;;;;;;;;;;;;;;;;;2594666;22;20013;-91
2023/01/13 06:33:18;;;;;;;;;;;;;;;;;;2598730;22;19902;-91
2023/01/13 06:34:19;;;;;;;;;;;;;;;;;;2581071;23;20002;-88
2023/01/13 06:35:23;;;;;;;;;;;;;;;;;;2585037;23;19958;-89
2023/01/13 06:36:44;;;;;;;;;;;;;;;;;;2593764;22;19937;-92
2023/01/13 06:37:46;;;;;;;;;;;;;;;;;;2580610;23;19967;-90
2023/01/13 06:38:49;;;;;;;;;;;;;;;;;;2569159;23;20348;-90
2023/01/13 06:39:49;;;;;;;;;;;;;;;;;;2568901;23;19996;-90
2023/01/13 06:40:50;;;;;;;;;;;;;;;;;;2568597;23;19919;-90
2023/01/13 06:43:16;;;;;;;;;;;;;;;;;;2598487;22;20347;-90
2023/01/13 06:44:17;;;;;;;;;;;;;;;;;;2581475;23;19907;-91
2023/01/13 06:45:17;;;;;;;;;;;;;;;;;;2568304;23;20295;-90
2023/01/13 06:46:18;;;;;;;;;;;;;;;;;;2584921;23;19915;-89
2023/01/13 06:47:21;;;;;;;;;;;;;;;;;;2598150;22;19907;-90
2023/01/13 06:48:26;;;;;;;;;;;;;;;;;;2580523;23;20376;-91
2023/01/13 06:49:26;;;;;;;;;;;;;;;;;;2569060;23;19908;-90
2023/01/13 06:50:27;;;;;;;;;;;;;;;;;;2585118;23;20037;-91
2023/01/13 06:51:27;;;;;;;;;;;;;;;;;;2598832;22;19903;-91
2023/01/13 06:52:29;;;;;;;;;;;;;;;;;;2598563;22;19907;-89
2023/01/13 06:53:29;;;;;;;;;;;;;;;;;;2602563;22;19978;-89
2023/01/13 06:54:30;;;;;;;;;;;;;;;;;;2593277;22;19899;-89
2023/01/13 06:55:30;;;;;;;;;;;;;;;;;;2597559;22;19937;-90
2023/01/13 06:56:30;;;;;;;;;;;;;;;;;;2591486;22;19934;-91
2023/01/13 06:57:31;;;;;;;;;;;;;;;;;;2588733;23;19951;-91
2023/01/13 06:58:31;;;;;;;;;;;;;;;;;;2582776;23;19911;-91
2023/01/13 06:59:34;;;;;;;;;;;;;;;;;;2568548;23;19904;-91
2023/01/13 07:00:35;;;;;;;;;;;;;;;;;;2568627;23;19938;-90
2023/01/13 07:01:36;;;;;;;;;;;;;;;;;;2568689;23;20324;-92
2023/01/13 07:02:36;;;;;;;;;;;;;;;;;;2585772;23;19961;-92
2023/01/13 07:03:36;;;;;;;;;;;;;;;;;;2582445;23;19910;-92
2023/01/13 07:04:36;;;;;;;;;;;;;;;;;;2599157;22;20327;-87
2023/01/13 07:05:37;;;;;;;;;;;;;;;;;;2587814;23;19978;-90
2023/01/13 07:06:37;;;;;;;;;;;;;;;;;;2586921;23;19978;-91
2023/01/13 07:07:38;;;;;;;;;;;;;;;;;;2581354;23;20362;-91
2023/01/13 07:08:38;;;;;;;;;;;;;;;;;;2569004;23;19931;-91
2023/01/13 07:09:39;;;;;;;;;;;;;;;;;;2581375;23;19907;-90
2023/01/13 07:10:39;;;;;;;;;;;;;;;;;;2581392;23;20013;-89
2023/01/13 07:11:39;;;;;;;;;;;;;;;;;;2160810;22;10000949;-91
2023/01/13 07:15:19;;;;;;;;;;;;;;;;;;2611824;22;19899;-91
2023/01/13 07:16:19;;;;;;;;;;;;;;;;;;2592134;22;19907;-89
2023/01/13 07:17:23;;;;;;;;;;;;;;;;;;2587456;23;20310;-92
2023/01/13 07:18:26;;;;;;;;;;;;;;;;;;2581906;23;19911;-91
2023/01/13 07:19:26;;;;;;;;;;;;;;;;;;2569040;23;20281;-90
2023/01/13 07:20:27;;;;;;;;;;;;;;;;;;2585650;23;20030;-90
2023/01/13 07:21:27;;;;;;;;;;;;;;;;;;2581308;23;20073;-91
2023/01/13 07:22:27;;;;;;;;;;;;;;;;;;2568536;23;19904;-91
2023/01/13 07:23:28;;;;;;;;;;;;;;;;;;2568557;23;20010;-90
2023/01/13 07:24:29;;;;;;;;;;;;;;;;;;2568624;23;20011;-91
2023/01/13 07:25:31;;;;;;;;;;;;;;;;;;2568179;23;20619;-91
2023/01/13 07:26:33;;;;;;;;;;;;;;;;;;2569272;23;19911;-91
2023/01/13 07:27:34;;;;;;;;;;;;;;;;;;2569884;23;19903;-91
2023/01/13 07:28:36;;;;;;;;;;;;;;;;;;2585318;23;20398;-91
2023/01/13 07:29:37;;;;;;;;;;;;;;;;;;2581884;23;19934;-90
2023/01/13 07:30:37;;;;;;;;;;;;;;;;;;2569310;23;19904;-90
2023/01/13 07:31:38;;;;;;;;;;;;;;;;;;2585008;23;19915;-91
2023/01/13 07:32:38;;;;;;;;;;;;;;;;;;2581639;23;20074;-91
2023/01/13 07:33:39;;;;;;;;;;;;;;;;;;2568975;23;19916;-91
2023/01/13 07:34:39;;;;;;;;;;;;;;;;;;2581356;23;20070;-90
2023/01/13 07:35:39;;;;;;;;;;;;;;;;;;2581168;23;19903;-89
2023/01/13 07:36:40;;;;;;;;;;;;;;;;;;2580903;23;19910;-89
2023/01/13 07:37:43;;;;;;;;;;;;;;;;;;2584888;23;19908;-90
2023/01/13 07:38:43;;;;;;;;;;;;;;;;;;2598404;22;19985;-90
2023/01/13 07:39:44;;;;;;;;;;;;;;;;;;2598696;22;19907;-91